createdAt,value
2023-01-06T00:01:13.436Z,2.65
2023-01-06T00:03:41.311Z,2.30
2023-01-06T00:06:12.231Z,2.20
2023-01-06T00:08:40.501Z,2.10
2023-01-06T00:11:08.880Z,2.75
2023-01-06T00:13:36.525Z,2.92
2023-01-06T00:16:05.685Z,2.60
2023-01-06T00:18:34.688Z,3.10
2023-01-06T00:21:02.918Z,3.33
2023-01-06T00:23:30.720Z,2.38
2023-01-06T00:25:58.289Z,2.53
2023-01-06T00:28:25.902Z,2.80
2023-01-06T00:30:53.859Z,3.03
2023-01-06T00:33:21.382Z,2.30
2023-01-06T00:35:50.203Z,2.17
2023-01-06T00:38:18.022Z,2.58
2023-01-06T00:40:45.553Z,2.63
2023-01-06T00:43:13.032Z,2.50
2023-01-06T00:45:40.497Z,2.92
2023-01-06T00:48:07.972Z,3.08
2023-01-06T00:50:35.467Z,2.92
2023-01-06T00:53:04.275Z,3.00
2023-01-06T00:55:31.770Z,3.25
2023-01-06T00:57:59.298Z,2.80
2023-01-06T01:00:26.817Z,2.85
2023-01-06T01:02:54.366Z,3.00
2023-01-06T01:05:21.881Z,2.70
2023-01-06T01:07:49.361Z,2.60
2023-01-06T01:10:18.250Z,2.70
2023-01-06T01:12:45.764Z,2.88
2023-01-06T01:15:13.274Z,2.00
2023-01-06T01:17:41.047Z,2.20
2023-01-06T01:20:10.067Z,2.60
2023-01-06T01:22:37.571Z,2.50
2023-01-06T01:25:05.577Z,2.60
2023-01-06T01:27:34.419Z,2.63
2023-01-06T01:30:01.918Z,2.70
2023-01-06T01:32:29.438Z,2.90
2023-01-06T01:34:56.961Z,2.97
2023-01-06T01:37:24.500Z,3.13
2023-01-06T01:39:52.012Z,3.08
2023-01-06T01:42:21.897Z,2.88
2023-01-06T01:45:05.933Z,3.13
2023-01-06T01:47:44.327Z,2.72
2023-01-06T01:50:20.132Z,3.10
2023-01-06T01:52:50.486Z,2.72
2023-01-06T01:55:19.812Z,2.53
2023-01-06T01:57:51.495Z,2.83
2023-01-06T02:00:21.130Z,2.67
2023-01-06T02:02:49.167Z,2.58
2023-01-06T02:05:27.234Z,1.92
2023-01-06T02:07:57.357Z,1.98
2023-01-06T02:10:25.887Z,1.85
2023-01-06T02:12:55.807Z,1.70
2023-01-06T02:15:28.057Z,1.90
2023-01-06T02:18:27.074Z,1.90
2023-01-06T02:21:10.580Z,1.95
2023-01-06T02:23:57.087Z,1.92
2023-01-06T02:27:00.541Z,1.80
2023-01-06T02:32:25.461Z,1.60
2023-01-06T02:35:10.571Z,1.83
2023-01-06T02:37:49.176Z,1.60
2023-01-06T02:40:30.065Z,1.80
2023-01-06T02:43:10.844Z,1.52
2023-01-06T02:45:49.773Z,1.60
2023-01-06T02:48:25.876Z,1.83
2023-01-06T02:51:01.985Z,1.40
2023-01-06T02:53:40.657Z,1.63
2023-01-06T02:56:08.591Z,0.80
2023-01-06T02:58:45.386Z,1.10
2023-01-06T03:01:17.853Z,0.90
2023-01-06T03:03:49.245Z,1.20
2023-01-06T03:06:19.501Z,0.80
2023-01-06T03:08:49.767Z,0.88
2023-01-06T03:11:17.707Z,1.00
2023-01-06T03:13:49.900Z,1.40
2023-01-06T03:16:17.802Z,1.10
2023-01-06T03:18:48.687Z,1.48
2023-01-06T03:21:19.962Z,2.90
2023-01-06T03:23:48.281Z,2.10
2023-01-06T03:26:16.301Z,2.40
2023-01-06T03:28:43.774Z,2.28
2023-01-06T03:31:16.202Z,2.25
2023-01-06T03:33:57.672Z,2.05
2023-01-06T03:36:36.000Z,2.55
2023-01-06T03:39:12.433Z,1.98
2023-01-06T03:42:04.118Z,2.38
2023-01-06T03:44:40.452Z,2.40
2023-01-06T03:47:16.213Z,2.10
2023-01-06T03:49:53.683Z,1.75
2023-01-06T03:52:28.756Z,2.35
2023-01-06T03:55:01.539Z,1.83
2023-01-06T04:00:03.719Z,1.85
2023-01-06T04:02:31.795Z,1.70
2023-01-06T04:05:10.930Z,1.40
2023-01-06T04:07:39.338Z,1.13
2023-01-06T04:10:07.854Z,1.70
2023-01-06T04:12:40.273Z,1.17
2023-01-06T04:15:10.462Z,1.70
2023-01-06T04:17:38.301Z,1.60
2023-01-06T04:20:08.931Z,1.27
2023-01-06T04:22:36.818Z,1.17
2023-01-06T04:25:05.393Z,1.10
2023-01-06T04:27:32.926Z,1.20
2023-01-06T04:30:00.484Z,1.60
2023-01-06T04:32:28.002Z,1.55
2023-01-06T04:34:55.514Z,1.20
2023-01-06T04:37:24.551Z,1.70
2023-01-06T04:39:52.033Z,1.48
2023-01-06T04:42:19.518Z,1.77
2023-01-06T04:44:47.037Z,1.30
2023-01-06T04:47:14.586Z,2.00
2023-01-06T04:49:42.496Z,1.88
2023-01-06T04:52:10.095Z,2.42
2023-01-06T04:54:38.918Z,3.63
2023-01-06T04:57:06.401Z,2.83
2023-01-06T04:59:33.878Z,4.43
2023-01-06T05:02:01.394Z,6.68
2023-01-06T05:04:34.215Z,5.15
2023-01-06T05:07:04.582Z,9.68
2023-01-06T05:09:32.062Z,4.93
2023-01-06T05:12:01.022Z,4.28
2023-01-06T05:14:28.505Z,3.03
2023-01-06T05:16:56.019Z,2.92
2023-01-06T05:19:23.676Z,2.50
2023-01-06T05:21:51.151Z,3.78
2023-01-06T05:24:18.662Z,3.63
2023-01-06T05:26:46.169Z,3.65
2023-01-06T05:29:17.820Z,2.50
2023-01-06T05:31:45.389Z,2.80
2023-01-06T05:34:13.026Z,3.28
2023-01-06T05:36:40.487Z,2.70
2023-01-06T05:39:07.943Z,2.88
2023-01-06T05:41:35.437Z,2.50
2023-01-06T05:44:02.927Z,2.40
2023-01-06T05:46:31.747Z,2.28
2023-01-06T05:49:02.092Z,2.25
2023-01-06T05:51:30.061Z,2.00
2023-01-06T05:53:57.691Z,2.05
2023-01-06T05:56:25.318Z,2.10
2023-01-06T05:58:54.637Z,2.00
2023-01-06T06:01:24.631Z,1.50
2023-01-06T06:03:55.088Z,1.48
2023-01-06T06:06:24.726Z,1.60
2023-01-06T06:08:52.288Z,1.50
2023-01-06T06:11:20.773Z,1.80
2023-01-06T06:13:49.387Z,2.42
2023-01-06T06:16:19.043Z,1.90
2023-01-06T06:18:50.297Z,2.05
2023-01-06T06:21:20.726Z,2.22
2023-01-06T06:23:48.665Z,1.95
2023-01-06T06:26:16.338Z,1.95
2023-01-06T06:28:43.804Z,2.10
2023-01-06T06:31:13.645Z,2.70
2023-01-06T06:33:41.862Z,2.40
2023-01-06T06:36:12.033Z,3.00
2023-01-06T06:38:40.863Z,2.90
2023-01-06T06:41:08.446Z,3.08
2023-01-06T06:43:35.996Z,3.53
2023-01-06T06:46:03.598Z,3.10
2023-01-06T06:48:31.171Z,2.80
2023-01-06T06:50:59.165Z,3.10
2023-01-06T06:53:27.210Z,3.15
2023-01-06T06:55:56.886Z,3.05
2023-01-06T06:58:24.723Z,3.13
2023-01-06T07:00:52.226Z,3.58
2023-01-06T07:03:20.434Z,2.95
2023-01-06T07:05:49.971Z,3.10
2023-01-06T07:08:17.609Z,3.30
2023-01-06T07:10:45.074Z,3.58
2023-01-06T07:13:13.960Z,2.63
2023-01-06T07:15:41.476Z,3.08
2023-01-06T07:18:09.158Z,3.05
2023-01-06T07:20:38.187Z,3.10
2023-01-06T07:23:06.162Z,3.60
2023-01-06T07:25:33.779Z,2.97
2023-01-06T07:28:05.423Z,2.63
2023-01-06T07:30:34.970Z,3.40
2023-01-06T07:33:02.512Z,2.97
2023-01-06T07:35:30.433Z,2.45
2023-01-06T07:38:03.403Z,2.58
2023-01-06T07:40:30.879Z,2.95
2023-01-06T07:42:58.427Z,3.15
2023-01-06T07:45:25.894Z,2.92
2023-01-06T07:47:56.859Z,2.30
2023-01-06T07:50:26.326Z,2.90
2023-01-06T07:52:54.478Z,2.90
2023-01-06T07:55:21.987Z,2.70
2023-01-06T07:57:49.473Z,3.47
2023-01-06T08:00:17.173Z,3.38
2023-01-06T08:02:44.741Z,2.97
2023-01-06T08:05:13.922Z,3.30
2023-01-06T08:07:41.395Z,2.53
2023-01-06T08:10:09.537Z,2.90
2023-01-06T08:12:37.185Z,2.88
2023-01-06T08:15:05.688Z,2.83
2023-01-06T08:17:33.215Z,3.00
2023-01-06T08:20:00.716Z,3.10
2023-01-06T08:22:29.570Z,3.88
2023-01-06T08:24:57.130Z,2.58
2023-01-06T08:27:24.672Z,4.90
2023-01-06T08:29:54.763Z,4.32
2023-01-06T08:32:22.649Z,5.63
2023-01-06T08:34:50.147Z,5.95
2023-01-06T08:37:17.898Z,4.00
2023-01-06T08:39:47.069Z,3.88
2023-01-06T08:42:14.645Z,2.95
2023-01-06T08:44:42.595Z,2.90
2023-01-06T08:49:52.278Z,2.50
2023-01-06T09:22:42.922Z,2.80
2023-01-06T09:25:31.103Z,2.38
2023-01-06T09:27:59.001Z,2.45
2023-01-06T09:30:26.950Z,2.60
2023-01-06T09:32:56.521Z,2.70
2023-01-06T09:35:24.641Z,2.80
2023-01-06T09:37:52.491Z,2.38
2023-01-06T09:40:25.087Z,1.83
2023-01-06T09:43:05.842Z,1.52
2023-01-06T09:45:40.117Z,1.20
2023-01-06T09:48:17.946Z,1.10
2023-01-06T09:51:05.645Z,1.20
2023-01-06T09:57:42.881Z,0.60
2023-01-06T10:04:25.131Z,0.40
2023-01-06T10:07:02.333Z,0.50
2023-01-06T10:09:47.099Z,0.40
2023-01-06T10:13:21.085Z,0.43
2023-01-06T10:15:54.422Z,0.43
2023-01-06T10:18:31.945Z,0.95
2023-01-06T10:21:10.891Z,0.52
2023-01-06T10:23:56.485Z,0.55
2023-01-06T10:26:30.747Z,0.82
2023-01-06T10:29:03.601Z,0.90
2023-01-06T10:31:36.305Z,1.13
2023-01-06T10:39:53.033Z,1.38
2023-01-06T10:49:50.999Z,1.00
2023-01-06T10:56:55.239Z,0.90
2023-01-06T11:35:50.081Z,0.90
2023-01-06T11:38:20.934Z,1.02
2023-01-06T11:40:50.506Z,0.70
2023-01-06T11:43:23.432Z,0.60
2023-01-06T11:49:08.165Z,0.80
2023-01-06T11:51:51.261Z,0.77
2023-01-06T11:54:27.053Z,0.70
2023-01-06T11:57:04.344Z,0.80
2023-01-06T11:59:45.752Z,0.80
2023-01-06T12:02:22.772Z,0.75
2023-01-06T12:05:12.596Z,0.65
2023-01-06T12:08:12.659Z,0.82
2023-01-06T12:11:08.361Z,0.60
2023-01-06T12:14:13.116Z,0.65
2023-01-06T12:16:57.001Z,0.77
2023-01-06T12:19:38.078Z,0.60
2023-01-06T12:22:06.919Z,0.68
2023-01-06T12:24:47.268Z,2.10
2023-01-06T12:27:25.065Z,0.90
2023-01-06T12:29:55.160Z,0.98
2023-01-06T12:32:29.085Z,1.10
2023-01-06T12:35:04.271Z,1.05
2023-01-06T12:37:38.029Z,1.35
2023-01-06T12:40:20.063Z,1.48
2023-01-06T12:42:54.456Z,1.07
2023-01-06T12:45:36.342Z,1.67
2023-01-06T12:50:42.501Z,2.10
2023-01-06T12:53:20.522Z,1.98
2023-01-06T12:56:44.776Z,1.60
2023-01-06T12:59:36.124Z,1.90
2023-01-06T13:02:20.376Z,2.28
2023-01-06T13:05:00.941Z,2.30
2023-01-06T13:07:40.846Z,1.85
2023-01-06T13:10:19.484Z,3.33
2023-01-06T13:13:22.842Z,2.63
2023-01-06T13:18:24.855Z,1.77
2023-01-06T13:20:58.172Z,1.83
2023-01-06T13:23:39.210Z,1.83
2023-01-06T13:26:27.429Z,1.67
2023-01-06T13:29:07.774Z,1.50
2023-01-06T13:31:56.320Z,1.70
2023-01-06T13:34:47.731Z,1.58
2023-01-06T13:37:28.962Z,1.40
2023-01-06T13:39:59.667Z,1.60
2023-01-06T13:42:35.796Z,1.75
2023-01-06T13:45:08.967Z,1.25
2023-01-06T13:47:37.719Z,1.73
2023-01-06T13:50:06.515Z,1.63
2023-01-06T13:52:35.400Z,1.20
2023-01-06T13:55:23.094Z,1.38
2023-01-06T13:57:50.811Z,1.23
2023-01-06T14:00:24.813Z,1.60
2023-01-06T14:03:14.116Z,1.90
2023-01-06T14:05:56.100Z,1.88
2023-01-06T14:08:27.241Z,1.90
2023-01-06T14:11:02.140Z,2.08
2023-01-06T14:13:34.366Z,1.88
2023-01-06T14:16:07.485Z,1.80
2023-01-06T14:18:39.716Z,1.70
2023-01-06T14:21:17.439Z,1.65
2023-01-06T14:23:58.264Z,1.23
2023-01-06T14:27:02.610Z,1.58
2023-01-06T14:30:04.304Z,1.60
2023-01-06T14:33:02.852Z,1.52
2023-01-06T14:35:34.051Z,1.45
2023-01-06T14:38:04.936Z,1.77
2023-01-06T14:40:36.337Z,1.80
2023-01-06T14:43:20.458Z,1.52
2023-01-06T14:45:49.552Z,1.38
2023-01-06T14:48:22.151Z,1.75
2023-01-06T14:50:55.959Z,1.85
2023-01-06T14:53:30.469Z,1.60
2023-01-06T14:55:59.762Z,1.50
2023-01-06T14:58:32.069Z,1.80
2023-01-06T15:01:00.647Z,1.88
2023-01-06T15:03:30.596Z,1.45
2023-01-06T15:06:19.264Z,1.90
2023-01-06T15:08:46.863Z,2.00
2023-01-06T15:11:23.581Z,2.45
2023-01-06T15:13:51.328Z,2.63
2023-01-06T15:16:24.076Z,2.67
2023-01-06T15:21:23.724Z,2.58
2023-01-06T15:23:53.095Z,2.20
2023-01-06T15:26:24.619Z,2.03
2023-01-06T15:29:02.941Z,1.88
2023-01-06T15:31:33.904Z,2.63
2023-01-06T15:34:06.574Z,2.20
2023-01-06T15:39:04.829Z,2.75
2023-01-06T15:41:34.171Z,2.40
2023-01-06T15:44:03.522Z,3.03
2023-01-06T15:46:40.417Z,2.20
2023-01-06T15:49:23.846Z,1.65
2023-01-06T15:51:57.454Z,1.70
2023-01-06T15:54:26.861Z,3.38
2023-01-06T15:56:57.050Z,2.90
2023-01-06T15:59:28.301Z,1.50
2023-01-06T16:01:56.850Z,1.35
2023-01-06T16:04:25.941Z,1.02
2023-01-06T16:06:53.514Z,1.02
2023-01-06T16:09:35.768Z,0.93
2023-01-06T16:12:17.526Z,0.82
2023-01-06T16:14:47.078Z,1.58
2023-01-06T16:17:20.639Z,1.70
2023-01-06T16:19:51.260Z,1.30
2023-01-06T16:22:37.285Z,1.40
2023-01-06T16:25:09.212Z,1.38
2023-01-06T16:27:36.824Z,1.58
2023-01-06T16:30:22.044Z,1.35
2023-01-06T16:32:52.519Z,1.10
2023-01-06T16:35:23.339Z,1.83
2023-01-06T16:37:51.738Z,1.33
2023-01-06T16:40:21.559Z,1.35
2023-01-06T16:42:50.963Z,1.30
2023-01-06T16:45:23.810Z,1.30
2023-01-06T16:47:52.011Z,1.20
2023-01-06T16:50:24.416Z,1.30
2023-01-06T16:53:00.206Z,1.58
2023-01-06T16:55:28.017Z,1.83
2023-01-06T16:57:56.899Z,1.67
2023-01-06T17:00:24.753Z,1.38
2023-01-06T17:02:52.583Z,1.92
2023-01-06T17:05:25.056Z,1.63
2023-01-06T17:07:54.418Z,1.80
2023-01-06T17:10:23.987Z,1.92
2023-01-06T17:13:13.510Z,2.67
2023-01-06T17:15:41.665Z,3.20
2023-01-06T17:18:24.738Z,3.50
2023-01-06T17:20:58.942Z,4.28
2023-01-06T17:23:26.498Z,4.75
2023-01-06T17:25:59.699Z,4.70
2023-01-06T17:28:27.239Z,4.60
2023-01-06T17:30:54.826Z,4.00
2023-01-06T17:33:22.326Z,4.05
2023-01-06T17:35:55.776Z,3.08
2023-01-06T17:38:25.251Z,4.00
2023-01-06T17:40:54.775Z,3.58
2023-01-06T17:43:26.129Z,3.60
2023-01-06T17:45:53.782Z,3.72
2023-01-06T17:48:22.123Z,4.97
2023-01-06T17:50:52.211Z,3.92
2023-01-06T17:53:44.140Z,3.70
2023-01-06T17:56:13.017Z,3.05
2023-01-06T17:58:42.914Z,3.72
2023-01-06T18:01:14.844Z,3.45
2023-01-06T18:03:44.134Z,3.50
2023-01-06T18:06:20.820Z,2.80
2023-01-06T18:08:51.034Z,2.67
2023-01-06T18:11:34.287Z,2.70
2023-01-06T18:14:15.593Z,1.85
2023-01-06T18:16:45.507Z,2.10
2023-01-06T18:19:26.707Z,2.03
2023-01-06T18:21:54.851Z,2.03
2023-01-06T18:24:31.413Z,2.45
2023-01-06T18:27:00.956Z,2.92
2023-01-06T18:29:36.368Z,3.70
2023-01-06T18:32:26.109Z,3.03
2023-01-06T18:34:54.736Z,4.22
2023-01-06T18:37:25.250Z,4.28
2023-01-06T18:39:57.360Z,3.92
2023-01-06T18:42:27.788Z,3.10
2023-01-06T18:45:02.424Z,2.95
2023-01-06T18:47:32.258Z,2.83
2023-01-06T18:50:15.088Z,2.53
2023-01-06T18:52:46.196Z,2.85
2023-01-06T18:55:22.999Z,2.70
2023-01-06T18:58:01.905Z,3.10
2023-01-06T19:00:41.613Z,4.55
2023-01-06T19:03:29.822Z,4.20
2023-01-06T19:06:07.148Z,3.90
2023-01-06T19:08:36.306Z,4.43
2023-01-06T19:11:12.808Z,4.53
2023-01-06T19:13:40.358Z,5.55
2023-01-06T19:16:25.532Z,5.15
2023-01-06T19:18:54.703Z,5.00
2023-01-06T19:21:23.677Z,5.10
2023-01-06T19:23:51.192Z,4.57
2023-01-06T19:26:31.527Z,4.13
2023-01-06T19:29:02.169Z,3.40
2023-01-06T19:31:30.549Z,3.88
2023-01-06T19:33:59.947Z,3.53
2023-01-06T19:36:46.931Z,3.40
2023-01-06T19:39:23.643Z,3.80
2023-01-06T19:41:55.134Z,4.35
2023-01-06T19:44:30.091Z,3.85
2023-01-06T19:46:57.610Z,4.22
2023-01-06T19:49:27.616Z,4.45
2023-01-06T19:51:55.845Z,4.95
2023-01-06T19:54:27.163Z,4.28
2023-01-06T19:56:57.148Z,4.03
2023-01-06T19:59:29.147Z,3.97
2023-01-06T20:02:04.184Z,4.05
2023-01-06T20:04:31.821Z,4.43
2023-01-06T20:06:59.353Z,4.60
2023-01-06T20:09:26.831Z,4.80
2023-01-06T20:11:56.139Z,4.60
2023-01-06T20:14:23.859Z,4.75
2023-01-06T20:16:51.402Z,4.82
2023-01-06T20:19:21.330Z,4.22
2023-01-06T20:21:48.813Z,3.60
2023-01-06T20:24:16.355Z,3.92
2023-01-06T20:26:44.137Z,3.90
2023-01-06T20:29:13.031Z,4.18
2023-01-06T20:31:40.586Z,4.25
2023-01-06T20:34:08.028Z,3.67
2023-01-06T20:36:35.478Z,3.42
2023-01-06T20:39:03.015Z,3.25
2023-01-06T20:41:30.525Z,3.63
2023-01-06T20:43:58.006Z,3.30
2023-01-06T20:46:26.861Z,2.97
2023-01-06T20:48:54.467Z,2.95
2023-01-06T20:51:21.939Z,3.25
2023-01-06T20:53:49.476Z,2.53
2023-01-06T20:56:16.984Z,3.28
2023-01-06T20:58:44.462Z,3.20
2023-01-06T21:01:12.042Z,3.35
2023-01-06T21:03:41.129Z,3.75
2023-01-06T21:06:09.265Z,4.00
2023-01-06T21:08:36.859Z,4.10
2023-01-06T21:11:04.383Z,4.28
2023-01-06T21:13:31.915Z,4.38
2023-01-06T21:15:59.492Z,4.78
2023-01-06T21:18:27.014Z,4.60
2023-01-06T21:20:56.135Z,4.93
2023-01-06T21:23:23.649Z,7.72
2023-01-06T21:25:51.173Z,8.05
2023-01-06T21:28:18.707Z,8.02
2023-01-06T21:30:46.296Z,4.72
2023-01-06T21:33:14.310Z,4.57
2023-01-06T21:35:41.939Z,4.10
2023-01-06T21:38:10.869Z,3.90
2023-01-06T21:40:38.392Z,3.60
2023-01-06T21:43:11.193Z,3.20
2023-01-06T21:48:07.937Z,3.80
2023-01-06T21:50:38.997Z,3.40
2023-01-06T21:53:08.021Z,3.20
2023-01-06T21:55:37.389Z,3.25
2023-01-06T21:58:05.051Z,3.33
2023-01-06T22:00:32.731Z,3.03
2023-01-06T22:03:01.033Z,2.72
2023-01-06T22:05:29.236Z,3.75
2023-01-06T22:07:57.015Z,3.03
2023-01-06T22:10:26.493Z,2.85
2023-01-06T22:12:59.119Z,3.45
2023-01-06T22:15:28.350Z,3.25
2023-01-06T22:18:11.419Z,3.10
2023-01-06T22:20:57.802Z,3.17
2023-01-06T22:23:29.464Z,2.90
2023-01-06T22:25:57.068Z,2.97
2023-01-06T22:28:27.986Z,2.72
2023-01-06T22:30:55.698Z,3.60
2023-01-06T22:33:23.229Z,2.70
2023-01-06T22:35:50.977Z,3.20
2023-01-06T22:38:18.498Z,3.35
2023-01-06T22:40:47.699Z,3.28
2023-01-06T22:43:15.772Z,3.50
2023-01-06T22:45:44.928Z,4.25
2023-01-06T22:48:12.520Z,3.70
2023-01-06T22:50:40.092Z,3.55
2023-01-06T22:53:07.797Z,2.90
2023-01-06T22:55:35.340Z,3.72
2023-01-06T22:58:02.890Z,4.30
2023-01-06T23:00:30.679Z,5.45
2023-01-06T23:02:59.592Z,5.88
2023-01-06T23:05:27.233Z,5.55
2023-01-06T23:07:54.752Z,4.20
2023-01-06T23:10:22.510Z,4.25
2023-01-06T23:12:52.367Z,3.92
2023-01-06T23:15:19.920Z,3.42
2023-01-06T23:17:47.479Z,3.50
2023-01-06T23:20:16.472Z,3.40
2023-01-06T23:22:44.153Z,3.67
2023-01-06T23:25:11.959Z,2.88
2023-01-06T23:27:39.620Z,3.22
2023-01-06T23:30:08.461Z,3.45
2023-01-06T23:32:36.018Z,3.42
2023-01-06T23:35:03.783Z,2.97
2023-01-06T23:37:33.597Z,3.40
2023-01-06T23:40:01.199Z,3.05
2023-01-06T23:42:30.280Z,3.58
2023-01-06T23:44:58.170Z,4.03
2023-01-06T23:47:25.759Z,3.70
2023-01-06T23:49:53.387Z,3.40
2023-01-06T23:52:20.949Z,3.38
2023-01-06T23:54:49.954Z,3.38
2023-01-06T23:57:17.517Z,3.58
2023-01-06T23:59:45.370Z,3.38
